sensor_id;sensor_type;location;lat;lon;timestamp;temperature;humidity
4578;DHT22;2301;47.354;8.528;2024-03-23T00:55:49;16.20;71.80
4578;DHT22;2301;47.354;8.528;2024-03-23T00:58:14;16.30;68.10
4578;DHT22;2301;47.354;8.528;2024-03-23T01:00:41;16.30;64.40
4578;DHT22;2301;47.354;8.528;2024-03-23T01:03:07;16.20;66.70
4578;DHT22;2301;47.354;8.528;2024-03-23T01:05:34;16.10;65.20
4578;DHT22;2301;47.354;8.528;2024-03-23T01:08:00;16.20;66.30
4578;DHT22;2301;47.354;8.528;2024-03-23T01:10:29;16.30;69.40
4578;DHT22;2301;47.354;8.528;2024-03-23T01:12:54;16.30;67.80
4578;DHT22;2301;47.354;8.528;2024-03-23T01:15:21;16.30;69.20
4578;DHT22;2301;47.354;8.528;2024-03-23T01:17:47;16.20;68.90
4578;DHT22;2301;47.354;8.528;2024-03-23T01:20:14;16.20;69.70
4578;DHT22;2301;47.354;8.528;2024-03-23T01:22:40;16.10;63.70
4578;DHT22;2301;47.354;8.528;2024-03-23T01:25:07;16.10;67.00
4578;DHT22;2301;47.354;8.528;2024-03-23T01:27:34;16.10;68.70
4578;DHT22;2301;47.354;8.528;2024-03-23T01:30:01;16.20;67.00
4578;DHT22;2301;47.354;8.528;2024-03-23T01:32:27;16.20;70.00
4578;DHT22;2301;47.354;8.528;2024-03-23T01:34:54;16.10;65.20
4578;DHT22;2301;47.354;8.528;2024-03-23T01:37:20;16.20;69.90
4578;DHT22;2301;47.354;8.528;2024-03-23T01:39:47;16.30;69.70
4578;DHT22;2301;47.354;8.528;2024-03-23T01:42:13;16.30;68.30
4578;DHT22;2301;47.354;8.528;2024-03-23T01:44:41;16.30;67.80
4578;DHT22;2301;47.354;8.528;2024-03-23T01:47:07;16.30;69.80
4578;DHT22;2301;47.354;8.528;2024-03-23T01:49:35;16.40;70.80
4578;DHT22;2301;47.354;8.528;2024-03-23T01:52:02;16.40;70.10
4578;DHT22;2301;47.354;8.528;2024-03-23T01:54:29;16.40;66.60
4578;DHT22;2301;47.354;8.528;2024-03-23T01:56:55;16.40;68.60
4578;DHT22;2301;47.354;8.528;2024-03-23T01:59:23;16.40;69.50
4578;DHT22;2301;47.354;8.528;2024-03-23T02:01:50;16.50;71.10
4578;DHT22;2301;47.354;8.528;2024-03-23T02:04:17;16.50;69.50
4578;DHT22;2301;47.354;8.528;2024-03-23T02:06:43;16.60;71.00
4578;DHT22;2301;47.354;8.528;2024-03-23T02:09:10;16.50;66.80
4578;DHT22;2301;47.354;8.528;2024-03-23T02:11:36;16.40;63.40
4578;DHT22;2301;47.354;8.528;2024-03-23T02:14:03;16.20;65.20
4578;DHT22;2301;47.354;8.528;2024-03-23T02:16:28;16.10;67.10
4578;DHT22;2301;47.354;8.528;2024-03-23T02:18:57;16.20;69.70
4578;DHT22;2301;47.354;8.528;2024-03-23T02:21:23;16.20;68.40
4578;DHT22;2301;47.354;8.528;2024-03-23T02:23:51;16.20;63.50
4578;DHT22;2301;47.354;8.528;2024-03-23T02:26:17;16.10;63.90
4578;DHT22;2301;47.354;8.528;2024-03-23T02:28:44;16.00;65.70
4578;DHT22;2301;47.354;8.528;2024-03-23T02:31:10;15.90;63.60
4578;DHT22;2301;47.354;8.528;2024-03-23T02:33:37;15.90;64.70
4578;DHT22;2301;47.354;8.528;2024-03-23T02:36:04;15.80;65.00
4578;DHT22;2301;47.354;8.528;2024-03-23T02:38:31;15.90;68.00
4578;DHT22;2301;47.354;8.528;2024-03-23T02:41:03;15.90;67.60
4578;DHT22;2301;47.354;8.528;2024-03-23T02:43:30;16.00;67.10
4578;DHT22;2301;47.354;8.528;2024-03-23T02:45:56;16.00;66.50
4578;DHT22;2301;47.354;8.528;2024-03-23T02:48:23;15.90;64.70
4578;DHT22;2301;47.354;8.528;2024-03-23T02:50:49;15.90;67.60
4578;DHT22;2301;47.354;8.528;2024-03-23T02:53:16;15.90;66.70
4578;DHT22;2301;47.354;8.528;2024-03-23T02:55:42;15.70;62.90
4578;DHT22;2301;47.354;8.528;2024-03-23T02:58:10;15.60;65.10
4578;DHT22;2301;47.354;8.528;2024-03-23T03:00:36;15.70;68.90
4578;DHT22;2301;47.354;8.528;2024-03-23T03:03:03;15.70;66.60
4578;DHT22;2301;47.354;8.528;2024-03-23T03:05:29;15.70;64.20
4578;DHT22;2301;47.354;8.528;2024-03-23T03:07:56;15.70;66.90
4578;DHT22;2301;47.354;8.528;2024-03-23T03:10:22;15.80;67.30
4578;DHT22;2301;47.354;8.528;2024-03-23T03:12:48;15.80;67.10
4578;DHT22;2301;47.354;8.528;2024-03-23T03:15:16;15.80;67.00
4578;DHT22;2301;47.354;8.528;2024-03-23T03:17:43;15.80;69.20
4578;DHT22;2301;47.354;8.528;2024-03-23T03:20:09;16.00;69.80
4578;DHT22;2301;47.354;8.528;2024-03-23T03:22:39;16.00;67.90
4578;DHT22;2301;47.354;8.528;2024-03-23T03:25:05;16.00;68.30
4578;DHT22;2301;47.354;8.528;2024-03-23T03:27:33;16.00;68.80
4578;DHT22;2301;47.354;8.528;2024-03-23T03:29:59;16.00;65.70
4578;DHT22;2301;47.354;8.528;2024-03-23T03:32:29;16.00;66.80
4578;DHT22;2301;47.354;8.528;2024-03-23T03:34:55;15.90;65.40
4578;DHT22;2301;47.354;8.528;2024-03-23T03:37:22;15.80;65.80
4578;DHT22;2301;47.354;8.528;2024-03-23T03:39:48;15.90;68.60
4578;DHT22;2301;47.354;8.528;2024-03-23T03:42:15;15.80;67.00
4578;DHT22;2301;47.354;8.528;2024-03-23T03:44:41;15.80;67.30
4578;DHT22;2301;47.354;8.528;2024-03-23T03:47:07;16.00;71.20
4578;DHT22;2301;47.354;8.528;2024-03-23T03:49:35;16.00;69.70
4578;DHT22;2301;47.354;8.528;2024-03-23T03:52:02;16.10;69.20
4578;DHT22;2301;47.354;8.528;2024-03-23T03:54:28;16.00;68.10
4578;DHT22;2301;47.354;8.528;2024-03-23T03:56:55;16.00;67.80
4578;DHT22;2301;47.354;8.528;2024-03-23T03:59:20;15.90;67.80
4578;DHT22;2301;47.354;8.528;2024-03-23T04:01:47;15.80;66.00
4578;DHT22;2301;47.354;8.528;2024-03-23T04:04:13;15.70;66.80
4578;DHT22;2301;47.354;8.528;2024-03-23T04:06:43;15.50;60.70
4578;DHT22;2301;47.354;8.528;2024-03-23T04:09:09;15.50;65.50
4578;DHT22;2301;47.354;8.528;2024-03-23T04:11:36;15.70;69.00
4578;DHT22;2301;47.354;8.528;2024-03-23T04:14:03;15.70;66.20
4578;DHT22;2301;47.354;8.528;2024-03-23T04:16:34;15.50;65.40
4578;DHT22;2301;47.354;8.528;2024-03-23T04:19:00;15.50;68.70
4578;DHT22;2301;47.354;8.528;2024-03-23T04:21:27;15.50;67.70
4578;DHT22;2301;47.354;8.528;2024-03-23T04:23:54;15.40;68.20
4578;DHT22;2301;47.354;8.528;2024-03-23T04:26:21;15.30;67.70
4578;DHT22;2301;47.354;8.528;2024-03-23T04:28:47;15.30;68.80
4578;DHT22;2301;47.354;8.528;2024-03-23T04:31:14;15.40;70.10
4578;DHT22;2301;47.354;8.528;2024-03-23T04:33:40;15.40;70.10
4578;DHT22;2301;47.354;8.528;2024-03-23T04:36:07;15.40;70.30
4578;DHT22;2301;47.354;8.528;2024-03-23T04:38:33;15.40;68.20
4578;DHT22;2301;47.354;8.528;2024-03-23T04:41:01;15.50;70.10
4578;DHT22;2301;47.354;8.528;2024-03-23T04:43:27;15.50;68.40
4578;DHT22;2301;47.354;8.528;2024-03-23T04:45:55;15.60;69.70
4578;DHT22;2301;47.354;8.528;2024-03-23T04:48:22;15.70;70.50
4578;DHT22;2301;47.354;8.528;2024-03-23T04:50:49;15.80;69.60
4578;DHT22;2301;47.354;8.528;2024-03-23T04:53:16;15.80;69.50
4578;DHT22;2301;47.354;8.528;2024-03-23T04:55:44;15.90;66.50
4578;DHT22;2301;47.354;8.528;2024-03-23T04:58:12;16.00;67.30
4578;DHT22;2301;47.354;8.528;2024-03-23T05:00:38;16.00;66.10
4578;DHT22;2301;47.354;8.528;2024-03-23T05:03:05;16.10;65.70
4578;DHT22;2301;47.354;8.528;2024-03-23T05:05:32;16.10;64.40
4578;DHT22;2301;47.354;8.528;2024-03-23T05:07:58;16.20;64.20
4578;DHT22;2301;47.354;8.528;2024-03-23T05:10:25;16.20;62.60
4578;DHT22;2301;47.354;8.528;2024-03-23T05:12:52;16.30;65.80
4578;DHT22;2301;47.354;8.528;2024-03-23T05:15:24;16.30;63.60
4578;DHT22;2301;47.354;8.528;2024-03-23T05:17:51;16.40;65.70
4578;DHT22;2301;47.354;8.528;2024-03-23T05:20:18;16.50;65.50
4578;DHT22;2301;47.354;8.528;2024-03-23T05:22:44;16.60;66.30
4578;DHT22;2301;47.354;8.528;2024-03-23T05:25:12;16.70;67.10
4578;DHT22;2301;47.354;8.528;2024-03-23T05:27:38;16.90;68.90
4578;DHT22;2301;47.354;8.528;2024-03-23T05:30:06;17.00;67.80
4578;DHT22;2301;47.354;8.528;2024-03-23T05:32:33;17.00;65.70
4578;DHT22;2301;47.354;8.528;2024-03-23T05:35:00;17.00;61.80
4578;DHT22;2301;47.354;8.528;2024-03-23T05:37:26;16.90;63.40
4578;DHT22;2301;47.354;8.528;2024-03-23T05:39:53;16.80;64.70
4578;DHT22;2301;47.354;8.528;2024-03-23T05:42:19;16.50;65.60
4578;DHT22;2301;47.354;8.528;2024-03-23T05:44:46;16.30;66.50
4578;DHT22;2301;47.354;8.528;2024-03-23T05:47:13;16.20;67.60
4578;DHT22;2301;47.354;8.528;2024-03-23T05:49:41;16.20;68.60
4578;DHT22;2301;47.354;8.528;2024-03-23T05:52:07;16.20;68.60
4578;DHT22;2301;47.354;8.528;2024-03-23T05:54:34;16.20;68.70
4578;DHT22;2301;47.354;8.528;2024-03-23T05:57:00;16.20;69.50
4578;DHT22;2301;47.354;8.528;2024-03-23T05:59:27;16.20;68.50
4578;DHT22;2301;47.354;8.528;2024-03-23T06:01:53;16.20;68.70
4578;DHT22;2301;47.354;8.528;2024-03-23T06:04:20;16.10;69.90
4578;DHT22;2301;47.354;8.528;2024-03-23T06:06:48;16.10;70.40
4578;DHT22;2301;47.354;8.528;2024-03-23T06:09:15;16.10;71.60
4578;DHT22;2301;47.354;8.528;2024-03-23T06:11:41;16.20;71.00
4578;DHT22;2301;47.354;8.528;2024-03-23T06:14:07;16.20;70.80
4578;DHT22;2301;47.354;8.528;2024-03-23T06:16:33;16.20;71.60
4578;DHT22;2301;47.354;8.528;2024-03-23T06:19:00;16.10;71.70
4578;DHT22;2301;47.354;8.528;2024-03-23T06:21:29;16.10;72.70
4578;DHT22;2301;47.354;8.528;2024-03-23T06:23:57;16.20;73.10
4578;DHT22;2301;47.354;8.528;2024-03-23T06:26:23;16.20;72.40
4578;DHT22;2301;47.354;8.528;2024-03-23T06:28:50;16.20;73.10
4578;DHT22;2301;47.354;8.528;2024-03-23T06:31:16;16.20;73.60
4578;DHT22;2301;47.354;8.528;2024-03-23T06:33:43;16.20;74.10
4578;DHT22;2301;47.354;8.528;2024-03-23T06:36:10;16.20;74.20
4578;DHT22;2301;47.354;8.528;2024-03-23T06:38:37;16.20;74.50
4578;DHT22;2301;47.354;8.528;2024-03-23T06:41:05;16.10;74.20
4578;DHT22;2301;47.354;8.528;2024-03-23T06:43:32;16.10;74.20
4578;DHT22;2301;47.354;8.528;2024-03-23T06:45:58;15.90;73.10
4578;DHT22;2301;47.354;8.528;2024-03-23T06:48:25;15.70;72.80
4578;DHT22;2301;47.354;8.528;2024-03-23T06:50:55;15.80;74.80
4578;DHT22;2301;47.354;8.528;2024-03-23T06:53:23;15.60;72.50
4578;DHT22;2301;47.354;8.528;2024-03-23T06:55:51;15.30;71.40
4578;DHT22;2301;47.354;8.528;2024-03-23T06:58:21;15.20;71.90
4578;DHT22;2301;47.354;8.528;2024-03-23T07:00:49;15.10;72.10
4578;DHT22;2301;47.354;8.528;2024-03-23T07:03:18;15.00;71.80
4578;DHT22;2301;47.354;8.528;2024-03-23T07:05:45;14.90;72.60
4578;DHT22;2301;47.354;8.528;2024-03-23T07:08:12;14.80;72.40
4578;DHT22;2301;47.354;8.528;2024-03-23T07:10:39;14.70;73.00
4578;DHT22;2301;47.354;8.528;2024-03-23T07:13:06;15.20;78.90
4578;DHT22;2301;47.354;8.528;2024-03-23T07:15:33;15.50;75.70
4578;DHT22;2301;47.354;8.528;2024-03-23T07:18:00;15.40;72.20
4578;DHT22;2301;47.354;8.528;2024-03-23T07:20:26;15.40;71.30
4578;DHT22;2301;47.354;8.528;2024-03-23T07:22:56;15.20;70.50
4578;DHT22;2301;47.354;8.528;2024-03-23T07:25:21;15.00;70.40
4578;DHT22;2301;47.354;8.528;2024-03-23T07:27:50;14.80;70.30
4578;DHT22;2301;47.354;8.528;2024-03-23T07:30:16;14.70;70.80
4578;DHT22;2301;47.354;8.528;2024-03-23T07:32:45;14.60;70.80
4578;DHT22;2301;47.354;8.528;2024-03-23T07:35:11;14.50;70.10
4578;DHT22;2301;47.354;8.528;2024-03-23T07:37:38;14.40;70.20
4578;DHT22;2301;47.354;8.528;2024-03-23T07:40:06;14.40;70.50
4578;DHT22;2301;47.354;8.528;2024-03-23T07:42:33;14.40;70.70
4578;DHT22;2301;47.354;8.528;2024-03-23T07:44:59;14.30;70.50
4578;DHT22;2301;47.354;8.528;2024-03-23T07:47:26;14.10;70.40
4578;DHT22;2301;47.354;8.528;2024-03-23T07:49:53;14.10;70.40
4578;DHT22;2301;47.354;8.528;2024-03-23T07:52:20;14.00;70.70
4578;DHT22;2301;47.354;8.528;2024-03-23T07:54:47;14.00;70.90
4578;DHT22;2301;47.354;8.528;2024-03-23T07:57:13;13.80;71.00
4578;DHT22;2301;47.354;8.528;2024-03-23T07:59:39;13.70;71.70
4578;DHT22;2301;47.354;8.528;2024-03-23T08:02:06;13.70;73.60
4578;DHT22;2301;47.354;8.528;2024-03-23T08:04:32;14.20;79.70
4578;DHT22;2301;47.354;8.528;2024-03-23T08:07:00;14.80;78.70
4578;DHT22;2301;47.354;8.528;2024-03-23T08:09:26;14.60;70.80
4578;DHT22;2301;47.354;8.528;2024-03-23T08:11:53;14.30;67.60
4578;DHT22;2301;47.354;8.528;2024-03-23T08:14:19;13.90;65.70
4578;DHT22;2301;47.354;8.528;2024-03-23T08:16:46;13.70;65.50
4578;DHT22;2301;47.354;8.528;2024-03-23T08:19:15;13.30;65.10
4578;DHT22;2301;47.354;8.528;2024-03-23T08:21:41;13.20;65.40
4578;DHT22;2301;47.354;8.528;2024-03-23T08:24:09;13.10;65.40
4578;DHT22;2301;47.354;8.528;2024-03-23T08:26:36;13.00;65.40
4578;DHT22;2301;47.354;8.528;2024-03-23T08:29:03;12.80;65.10
4578;DHT22;2301;47.354;8.528;2024-03-23T08:31:30;12.60;64.80
4578;DHT22;2301;47.354;8.528;2024-03-23T08:33:56;12.40;65.10
4578;DHT22;2301;47.354;8.528;2024-03-23T08:36:23;12.20;65.60
4578;DHT22;2301;47.354;8.528;2024-03-23T08:38:49;12.30;65.10
4578;DHT22;2301;47.354;8.528;2024-03-23T08:41:20;12.20;64.70
4578;DHT22;2301;47.354;8.528;2024-03-23T08:43:46;12.20;63.40
4578;DHT22;2301;47.354;8.528;2024-03-23T08:46:14;12.10;63.00
4578;DHT22;2301;47.354;8.528;2024-03-23T08:48:42;12.00;62.70
4578;DHT22;2301;47.354;8.528;2024-03-23T08:51:10;11.90;61.90
4578;DHT22;2301;47.354;8.528;2024-03-23T08:53:37;12.00;62.60
4578;DHT22;2301;47.354;8.528;2024-03-23T08:56:05;11.90;61.50
4578;DHT22;2301;47.354;8.528;2024-03-23T08:58:34;11.80;61.10
4578;DHT22;2301;47.354;8.528;2024-03-23T09:01:06;11.70;60.50
4578;DHT22;2301;47.354;8.528;2024-03-23T09:03:33;11.80;61.70
4578;DHT22;2301;47.354;8.528;2024-03-23T09:06:01;11.80;59.90
4578;DHT22;2301;47.354;8.528;2024-03-23T09:08:27;11.90;60.00
4578;DHT22;2301;47.354;8.528;2024-03-23T09:10:53;12.00;60.30
4578;DHT22;2301;47.354;8.528;2024-03-23T09:13:21;12.20;60.30
4578;DHT22;2301;47.354;8.528;2024-03-23T09:15:50;12.20;59.70
4578;DHT22;2301;47.354;8.528;2024-03-23T09:18:16;12.20;60.00
4578;DHT22;2301;47.354;8.528;2024-03-23T09:20:43;12.30;59.70
4578;DHT22;2301;47.354;8.528;2024-03-23T09:23:09;12.50;60.00
4578;DHT22;2301;47.354;8.528;2024-03-23T09:25:37;12.50;60.20
4578;DHT22;2301;47.354;8.528;2024-03-23T09:28:04;12.50;59.90
4578;DHT22;2301;47.354;8.528;2024-03-23T09:30:32;12.60;59.90
4578;DHT22;2301;47.354;8.528;2024-03-23T09:33:00;12.50;59.20
4578;DHT22;2301;47.354;8.528;2024-03-23T09:35:27;12.40;58.90
4578;DHT22;2301;47.354;8.528;2024-03-23T09:37:53;12.50;59.40
4578;DHT22;2301;47.354;8.528;2024-03-23T09:40:20;12.60;59.30
4578;DHT22;2301;47.354;8.528;2024-03-23T09:42:50;12.60;58.90
4578;DHT22;2301;47.354;8.528;2024-03-23T09:45:21;12.70;58.20
4578;DHT22;2301;47.354;8.528;2024-03-23T09:47:47;12.90;58.30
4578;DHT22;2301;47.354;8.528;2024-03-23T09:50:17;13.10;58.30
4578;DHT22;2301;47.354;8.528;2024-03-23T09:52:46;13.10;57.90
4578;DHT22;2301;47.354;8.528;2024-03-23T09:55:13;13.10;58.10
4578;DHT22;2301;47.354;8.528;2024-03-23T09:57:39;12.90;56.90
4578;DHT22;2301;47.354;8.528;2024-03-23T10:00:07;12.70;56.80
4578;DHT22;2301;47.354;8.528;2024-03-23T10:02:33;12.60;56.50
4578;DHT22;2301;47.354;8.528;2024-03-23T10:05:00;12.60;56.80
4578;DHT22;2301;47.354;8.528;2024-03-23T10:07:28;12.60;56.90
4578;DHT22;2301;47.354;8.528;2024-03-23T10:09:55;12.60;56.80
4578;DHT22;2301;47.354;8.528;2024-03-23T10:12:22;12.60;56.80
4578;DHT22;2301;47.354;8.528;2024-03-23T10:14:49;12.50;57.30
4578;DHT22;2301;47.354;8.528;2024-03-23T10:17:16;12.60;56.60
4578;DHT22;2301;47.354;8.528;2024-03-23T10:19:44;12.50;56.20
4578;DHT22;2301;47.354;8.528;2024-03-23T10:22:14;12.40;55.80
4578;DHT22;2301;47.354;8.528;2024-03-23T10:24:42;12.30;55.80
4578;DHT22;2301;47.354;8.528;2024-03-23T10:27:08;12.20;55.50
4578;DHT22;2301;47.354;8.528;2024-03-23T10:29:35;12.20;55.90
4578;DHT22;2301;47.354;8.528;2024-03-23T10:32:08;12.10;55.40
4578;DHT22;2301;47.354;8.528;2024-03-23T10:34:36;12.10;54.90
4578;DHT22;2301;47.354;8.528;2024-03-23T10:37:02;12.00;55.70
4578;DHT22;2301;47.354;8.528;2024-03-23T10:39:32;12.00;55.50
4578;DHT22;2301;47.354;8.528;2024-03-23T10:42:01;12.00;55.30
4578;DHT22;2301;47.354;8.528;2024-03-23T10:44:29;12.10;55.40
4578;DHT22;2301;47.354;8.528;2024-03-23T10:46:56;12.10;55.40
4578;DHT22;2301;47.354;8.528;2024-03-23T10:49:27;12.10;55.00
4578;DHT22;2301;47.354;8.528;2024-03-23T10:51:56;12.20;55.10
4578;DHT22;2301;47.354;8.528;2024-03-23T10:54:25;12.20;55.20
4578;DHT22;2301;47.354;8.528;2024-03-23T10:56:57;12.30;55.50
4578;DHT22;2301;47.354;8.528;2024-03-23T10:59:27;12.40;55.50
4578;DHT22;2301;47.354;8.528;2024-03-23T11:01:55;12.50;54.90
4578;DHT22;2301;47.354;8.528;2024-03-23T11:04:32;12.50;54.70
4578;DHT22;2301;47.354;8.528;2024-03-23T11:06:59;12.50;53.00
4578;DHT22;2301;47.354;8.528;2024-03-23T11:09:44;12.50;52.80
4578;DHT22;2301;47.354;8.528;2024-03-23T11:12:27;12.50;52.40
4578;DHT22;2301;47.354;8.528;2024-03-23T11:15:00;12.40;51.70
4578;DHT22;2301;47.354;8.528;2024-03-23T11:17:27;12.40;51.80
4578;DHT22;2301;47.354;8.528;2024-03-23T11:19:55;12.40;51.30
4578;DHT22;2301;47.354;8.528;2024-03-23T11:22:43;12.30;51.40
4578;DHT22;2301;47.354;8.528;2024-03-23T11:25:22;12.20;51.10
4578;DHT22;2301;47.354;8.528;2024-03-23T11:27:50;12.20;51.80
4578;DHT22;2301;47.354;8.528;2024-03-23T11:30:19;12.20;51.10
4578;DHT22;2301;47.354;8.528;2024-03-23T11:32:48;12.20;51.10
4578;DHT22;2301;47.354;8.528;2024-03-23T11:35:26;12.20;51.30
4578;DHT22;2301;47.354;8.528;2024-03-23T11:38:11;12.30;52.00
4578;DHT22;2301;47.354;8.528;2024-03-23T11:40:39;12.30;51.30
4578;DHT22;2301;47.354;8.528;2024-03-23T11:43:06;12.30;50.70
4578;DHT22;2301;47.354;8.528;2024-03-23T11:45:35;12.30;50.80
4578;DHT22;2301;47.354;8.528;2024-03-23T11:48:06;12.40;49.70
4578;DHT22;2301;47.354;8.528;2024-03-23T11:50:34;12.40;50.00
4578;DHT22;2301;47.354;8.528;2024-03-23T11:53:13;12.40;49.40
4578;DHT22;2301;47.354;8.528;2024-03-23T11:55:47;12.40;47.10
4578;DHT22;2301;47.354;8.528;2024-03-23T11:58:14;12.40;47.40
4578;DHT22;2301;47.354;8.528;2024-03-23T12:00:48;12.50;47.40
4578;DHT22;2301;47.354;8.528;2024-03-23T12:03:16;12.50;47.00
4578;DHT22;2301;47.354;8.528;2024-03-23T12:05:48;12.60;47.10
4578;DHT22;2301;47.354;8.528;2024-03-23T12:08:24;12.80;46.60
4578;DHT22;2301;47.354;8.528;2024-03-23T12:10:52;12.80;46.20
4578;DHT22;2301;47.354;8.528;2024-03-23T12:13:19;12.80;46.10
4578;DHT22;2301;47.354;8.528;2024-03-23T12:15:50;12.90;46.20
4578;DHT22;2301;47.354;8.528;2024-03-23T12:18:16;12.90;46.40
4578;DHT22;2301;47.354;8.528;2024-03-23T12:20:43;12.90;45.80
4578;DHT22;2301;47.354;8.528;2024-03-23T12:23:10;13.00;46.30
4578;DHT22;2301;47.354;8.528;2024-03-23T12:25:38;13.00;46.30
4578;DHT22;2301;47.354;8.528;2024-03-23T12:28:04;12.90;46.10
4578;DHT22;2301;47.354;8.528;2024-03-23T12:30:33;12.80;48.30
4578;DHT22;2301;47.354;8.528;2024-03-23T12:33:01;12.80;50.70
4578;DHT22;2301;47.354;8.528;2024-03-23T12:35:28;12.80;52.30
4578;DHT22;2301;47.354;8.528;2024-03-23T12:37:54;12.70;53.10
4578;DHT22;2301;47.354;8.528;2024-03-23T12:40:21;12.80;54.40
4578;DHT22;2301;47.354;8.528;2024-03-23T12:42:47;12.80;53.90
4578;DHT22;2301;47.354;8.528;2024-03-23T12:45:14;12.90;54.10
4578;DHT22;2301;47.354;8.528;2024-03-23T12:47:40;13.00;54.70
4578;DHT22;2301;47.354;8.528;2024-03-23T12:50:09;13.20;54.70
4578;DHT22;2301;47.354;8.528;2024-03-23T12:52:35;13.20;54.20
4578;DHT22;2301;47.354;8.528;2024-03-23T12:55:02;13.30;53.30
4578;DHT22;2301;47.354;8.528;2024-03-23T12:57:31;13.30;52.80
4578;DHT22;2301;47.354;8.528;2024-03-23T12:59:58;13.30;52.60
4578;DHT22;2301;47.354;8.528;2024-03-23T13:02:24;13.40;52.20
4578;DHT22;2301;47.354;8.528;2024-03-23T13:04:52;13.50;51.60
4578;DHT22;2301;47.354;8.528;2024-03-23T13:07:20;13.50;50.80
4578;DHT22;2301;47.354;8.528;2024-03-23T13:09:49;13.60;51.00
4578;DHT22;2301;47.354;8.528;2024-03-23T13:12:15;13.80;51.80
4578;DHT22;2301;47.354;8.528;2024-03-23T13:14:44;13.90;50.30
4578;DHT22;2301;47.354;8.528;2024-03-23T13:17:10;14.00;50.30
4578;DHT22;2301;47.354;8.528;2024-03-23T13:19:36;14.20;50.00
4578;DHT22;2301;47.354;8.528;2024-03-23T13:22:03;14.20;48.60
4578;DHT22;2301;47.354;8.528;2024-03-23T13:24:32;14.20;48.60
4578;DHT22;2301;47.354;8.528;2024-03-23T13:26:58;14.30;48.20
4578;DHT22;2301;47.354;8.528;2024-03-23T13:29:25;14.40;47.80
4578;DHT22;2301;47.354;8.528;2024-03-23T13:31:52;14.40;47.50
4578;DHT22;2301;47.354;8.528;2024-03-23T13:34:19;14.50;47.10
4578;DHT22;2301;47.354;8.528;2024-03-23T13:36:46;14.40;47.10
4578;DHT22;2301;47.354;8.528;2024-03-23T13:39:14;14.40;45.90
4578;DHT22;2301;47.354;8.528;2024-03-23T13:41:43;14.50;43.00
4578;DHT22;2301;47.354;8.528;2024-03-23T13:44:10;14.50;42.10
4578;DHT22;2301;47.354;8.528;2024-03-23T13:46:37;14.50;41.50
4578;DHT22;2301;47.354;8.528;2024-03-23T13:49:04;14.60;41.30
4578;DHT22;2301;47.354;8.528;2024-03-23T13:51:30;14.60;40.40
4578;DHT22;2301;47.354;8.528;2024-03-23T13:53:57;14.60;39.70
4578;DHT22;2301;47.354;8.528;2024-03-23T13:56:26;14.50;39.50
4578;DHT22;2301;47.354;8.528;2024-03-23T13:58:55;14.40;40.20
4578;DHT22;2301;47.354;8.528;2024-03-23T14:01:21;14.40;43.70
4578;DHT22;2301;47.354;8.528;2024-03-23T14:03:47;14.40;46.00
4578;DHT22;2301;47.354;8.528;2024-03-23T14:06:13;14.40;46.90
4578;DHT22;2301;47.354;8.528;2024-03-23T14:08:40;14.40;47.40
4578;DHT22;2301;47.354;8.528;2024-03-23T14:11:07;14.40;47.70
4578;DHT22;2301;47.354;8.528;2024-03-23T14:13:36;14.40;47.60
4578;DHT22;2301;47.354;8.528;2024-03-23T14:16:07;14.50;47.10
4578;DHT22;2301;47.354;8.528;2024-03-23T14:18:33;14.60;47.00
4578;DHT22;2301;47.354;8.528;2024-03-23T14:21:03;14.60;47.00
4578;DHT22;2301;47.354;8.528;2024-03-23T14:23:31;14.60;45.60
4578;DHT22;2301;47.354;8.528;2024-03-23T14:25:58;14.70;45.60
4578;DHT22;2301;47.354;8.528;2024-03-23T14:28:25;14.70;45.70
4578;DHT22;2301;47.354;8.528;2024-03-23T14:30:54;14.60;45.90
4578;DHT22;2301;47.354;8.528;2024-03-23T14:33:23;14.50;45.90
4578;DHT22;2301;47.354;8.528;2024-03-23T14:35:55;14.60;45.20
4578;DHT22;2301;47.354;8.528;2024-03-23T14:38:22;14.60;45.80
4578;DHT22;2301;47.354;8.528;2024-03-23T14:40:49;14.60;43.10
4578;DHT22;2301;47.354;8.528;2024-03-23T14:43:16;14.60;41.90
4578;DHT22;2301;47.354;8.528;2024-03-23T14:46:06;14.70;41.90
4578;DHT22;2301;47.354;8.528;2024-03-23T14:48:39;14.70;42.10
4578;DHT22;2301;47.354;8.528;2024-03-23T14:51:06;14.80;42.70
4578;DHT22;2301;47.354;8.528;2024-03-23T14:53:34;14.80;42.80
4578;DHT22;2301;47.354;8.528;2024-03-23T14:56:00;14.90;43.10
4578;DHT22;2301;47.354;8.528;2024-03-23T14:58:28;14.90;42.10
4578;DHT22;2301;47.354;8.528;2024-03-23T15:01:00;14.90;42.80
4578;DHT22;2301;47.354;8.528;2024-03-23T15:03:27;14.90;42.70
4578;DHT22;2301;47.354;8.528;2024-03-23T15:05:55;14.80;41.70
4578;DHT22;2301;47.354;8.528;2024-03-23T15:08:23;14.70;41.60
4578;DHT22;2301;47.354;8.528;2024-03-23T15:10:49;14.70;41.00
4578;DHT22;2301;47.354;8.528;2024-03-23T15:13:16;14.60;41.40
4578;DHT22;2301;47.354;8.528;2024-03-23T15:15:42;14.70;42.10
4578;DHT22;2301;47.354;8.528;2024-03-23T15:18:09;14.60;41.10
4578;DHT22;2301;47.354;8.528;2024-03-23T15:20:35;14.50;40.00
4578;DHT22;2301;47.354;8.528;2024-03-23T15:23:03;14.40;40.20
4578;DHT22;2301;47.354;8.528;2024-03-23T15:25:29;14.40;40.70
4578;DHT22;2301;47.354;8.528;2024-03-23T15:27:57;14.30;40.90
4578;DHT22;2301;47.354;8.528;2024-03-23T15:30:25;14.30;40.10
4578;DHT22;2301;47.354;8.528;2024-03-23T15:32:52;14.20;40.60
4578;DHT22;2301;47.354;8.528;2024-03-23T15:35:22;14.20;39.60
4578;DHT22;2301;47.354;8.528;2024-03-23T15:37:53;14.20;39.90
4578;DHT22;2301;47.354;8.528;2024-03-23T15:40:24;14.20;40.30
4578;DHT22;2301;47.354;8.528;2024-03-23T15:42:53;14.20;39.80
4578;DHT22;2301;47.354;8.528;2024-03-23T15:45:19;14.10;40.00
4578;DHT22;2301;47.354;8.528;2024-03-23T15:47:46;14.00;41.60
4578;DHT22;2301;47.354;8.528;2024-03-23T15:50:12;13.80;40.80
4578;DHT22;2301;47.354;8.528;2024-03-23T15:52:38;13.80;40.90
4578;DHT22;2301;47.354;8.528;2024-03-23T15:55:06;13.70;39.90
4578;DHT22;2301;47.354;8.528;2024-03-23T15:57:39;13.60;39.40
4578;DHT22;2301;47.354;8.528;2024-03-23T16:00:07;13.50;39.20
4578;DHT22;2301;47.354;8.528;2024-03-23T16:02:35;13.40;38.40
4578;DHT22;2301;47.354;8.528;2024-03-23T16:05:01;13.30;39.50
4578;DHT22;2301;47.354;8.528;2024-03-23T16:07:29;13.30;39.00
4578;DHT22;2301;47.354;8.528;2024-03-23T16:09:55;13.30;38.80
4578;DHT22;2301;47.354;8.528;2024-03-23T16:12:22;13.30;38.90
4578;DHT22;2301;47.354;8.528;2024-03-23T16:14:49;13.10;39.00
4578;DHT22;2301;47.354;8.528;2024-03-23T16:17:16;13.10;37.80
4578;DHT22;2301;47.354;8.528;2024-03-23T16:19:42;13.00;38.80
4578;DHT22;2301;47.354;8.528;2024-03-23T16:22:08;13.00;39.50
4578;DHT22;2301;47.354;8.528;2024-03-23T16:24:34;13.00;39.20
4578;DHT22;2301;47.354;8.528;2024-03-23T16:27:01;13.00;39.10
4578;DHT22;2301;47.354;8.528;2024-03-23T16:29:27;13.00;38.80
4578;DHT22;2301;47.354;8.528;2024-03-23T16:31:55;13.00;38.90
4578;DHT22;2301;47.354;8.528;2024-03-23T16:34:21;13.00;38.80
4578;DHT22;2301;47.354;8.528;2024-03-23T16:36:48;12.90;38.40
4578;DHT22;2301;47.354;8.528;2024-03-23T16:39:14;12.90;38.20
4578;DHT22;2301;47.354;8.528;2024-03-23T16:41:42;12.90;37.10
4578;DHT22;2301;47.354;8.528;2024-03-23T16:44:08;12.80;37.40
4578;DHT22;2301;47.354;8.528;2024-03-23T16:46:36;12.80;38.90
4578;DHT22;2301;47.354;8.528;2024-03-23T16:49:03;12.70;37.80
4578;DHT22;2301;47.354;8.528;2024-03-23T16:51:31;12.80;37.80
4578;DHT22;2301;47.354;8.528;2024-03-23T16:53:57;12.70;38.10
4578;DHT22;2301;47.354;8.528;2024-03-23T16:56:25;12.80;38.90
4578;DHT22;2301;47.354;8.528;2024-03-23T16:58:50;12.80;38.40